Terminal Aerodrome Forecast
Issued by NWS

Home | Current Version | Previous Version | Text Only | Print | Product List | Glossary On
Versions: 1 2 3 4 5 6 7 8 9 10 11 12 13 14 15
000
FTUS43 KMQT 302336
TAFSAW
TAF
KSAW 302336Z 3100/3124 28012KT P6SM SCT080
     FM310100 24006KT P6SM SCT080
     FM311300 30012G19KT P6SM BKN060=

USA.gov is the U.S. government's official web portal to all federal, state and local government web resources and services.